Time;durP1;ratioP1;P1;durP2;ratioP2;P2;SDS_P1;SDS_P2;PMS_P1;PMS_P2;Temp;Humidity;BMP_temperature;BMP_pressure;BME280_temperature;BME280_humidity;BME280_pressure;Samples;Min_cycle;Max_cycle;Signal;HPM_P1;HPM_P2
2023/05/25 00:01:42;;;;;;;1.70;1.60;;;22.50;78.40;;;;;;5092983;28;20921;-83
2023/05/25 00:04:10;;;;;;;1.77;1.67;;;22.50;78.10;;;;;;5092817;28;20498;-83
2023/05/25 00:06:40;;;;;;;1.70;1.50;;;22.50;78.40;;;;;;5093016;28;20949;-83
2023/05/25 00:09:07;;;;;;;1.50;1.40;;;22.40;77.90;;;;;;5092883;28;20458;-83
2023/05/25 00:11:33;;;;;;;1.60;1.50;;;22.50;78.30;;;;;;5093841;28;20475;-83
2023/05/25 00:14:00;;;;;;;1.70;1.60;;;22.40;77.60;;;;;;5096901;28;20443;-83
2023/05/25 00:16:28;;;;;;;1.50;1.37;;;22.60;77.90;;;;;;5096865;28;20442;-83
2023/05/25 00:18:56;;;;;;;1.63;1.47;;;22.40;78.20;;;;;;5096511;28;20448;-83
2023/05/25 00:21:24;;;;;;;1.50;1.30;;;22.40;77.90;;;;;;5096779;28;20450;-83
2023/05/25 00:23:51;;;;;;;1.50;1.23;;;22.50;78.10;;;;;;5096385;28;20570;-83
2023/05/25 00:26:18;;;;;;;2.13;1.43;;;22.40;78.00;;;;;;5096443;28;20462;-83
2023/05/25 00:28:44;;;;;;;1.50;1.40;;;22.40;78.00;;;;;;5096324;28;20449;-83
2023/05/25 00:31:11;;;;;;;1.40;1.30;;;22.40;77.80;;;;;;5096534;28;20945;-83
2023/05/25 00:33:39;;;;;;;1.77;1.67;;;22.40;77.60;;;;;;5096849;28;20458;-83
2023/05/25 00:36:07;;;;;;;1.73;1.63;;;22.40;78.10;;;;;;5096315;28;20446;-84
2023/05/25 00:38:34;;;;;;;1.97;1.40;;;22.40;78.00;;;;;;5096171;28;20442;-83
2023/05/25 00:41:01;;;;;;;1.40;1.20;;;22.40;78.40;;;;;;5096537;28;20440;-83
2023/05/25 00:43:28;;;;;;;1.43;1.33;;;22.40;78.50;;;;;;5096248;28;20491;-83
2023/05/25 00:45:56;;;;;;;1.63;1.53;;;22.40;78.70;;;;;;5096142;28;20440;-91
2023/05/25 00:48:23;;;;;;;1.50;1.40;;;22.40;78.20;;;;;;5096128;28;20518;-90
2023/05/25 00:50:56;;;;;;;1.50;1.20;;;22.40;78.30;;;;;;5096343;28;20440;-83
2023/05/25 00:53:23;;;;;;;1.73;1.63;;;22.40;77.90;;;;;;5096066;28;20443;-83
2023/05/25 00:55:54;;;;;;;1.50;1.37;;;22.40;77.90;;;;;;5095761;28;20461;-84
2023/05/25 00:58:24;;;;;;;1.50;1.40;;;22.40;77.90;;;;;;5096111;28;20436;-83
2023/05/25 01:00:55;;;;;;;1.30;1.20;;;22.40;77.80;;;;;;5096174;28;21017;-83
2023/05/25 01:03:26;;;;;;;1.40;1.30;;;22.40;77.70;;;;;;5095679;28;20524;-89
2023/05/25 01:05:56;;;;;;;1.30;1.20;;;22.30;77.20;;;;;;5095975;28;20751;-83
2023/05/25 01:08:25;;;;;;;1.80;1.70;;;22.40;78.00;;;;;;5095574;28;20442;-83
2023/05/25 01:10:53;;;;;;;1.40;1.30;;;22.30;78.40;;;;;;5095701;28;20444;-83
2023/05/25 01:13:20;;;;;;;1.30;1.20;;;22.30;78.10;;;;;;5095455;28;20904;-83
2023/05/25 01:15:48;;;;;;;1.23;1.13;;;22.30;78.20;;;;;;5095830;28;20442;-83
2023/05/25 01:18:15;;;;;;;1.60;1.43;;;22.30;77.70;;;;;;5095623;28;20961;-83
2023/05/25 01:21:00;;;;;;;1.90;1.40;;;22.40;78.00;;;;;;5095428;28;20449;-83
2023/05/25 01:23:34;;;;;;;1.60;1.30;;;22.30;77.50;;;;;;5094938;28;20471;-83
2023/05/25 01:26:05;;;;;;;1.50;1.30;;;22.30;78.00;;;;;;5095340;28;20817;-83
2023/05/25 01:28:39;;;;;;;1.50;1.30;;;22.30;78.00;;;;;;5095202;28;20437;-83
2023/05/25 01:31:07;;;;;;;1.63;1.40;;;22.30;78.20;;;;;;5095324;28;20522;-83
2023/05/25 01:33:35;;;;;;;1.50;1.40;;;22.30;77.50;;;;;;5095314;28;20478;-83
2023/05/25 01:36:05;;;;;;;1.90;1.40;;;22.30;77.90;;;;;;5095400;28;20446;-83
2023/05/25 01:38:32;;;;;;;1.50;1.40;;;22.30;78.00;;;;;;5095357;28;20439;-84
2023/05/25 01:40:59;;;;;;;1.60;1.50;;;22.30;78.00;;;;;;5095084;28;20453;-83
2023/05/25 01:43:25;;;;;;;1.37;1.27;;;22.30;78.00;;;;;;5095018;28;20440;-83
2023/05/25 01:45:57;;;;;;;1.63;1.53;;;22.50;78.00;;;;;;5094999;28;20439;-83
2023/05/25 01:48:30;;;;;;;1.63;1.53;;;22.40;78.10;;;;;;5094773;28;20442;-83
2023/05/25 01:51:01;;;;;;;3.07;1.80;;;22.30;77.60;;;;;;5094925;28;20950;-89
2023/05/25 01:53:32;;;;;;;1.90;1.60;;;22.30;77.60;;;;;;5094854;28;20450;-83
2023/05/25 01:56:03;;;;;;;1.40;1.30;;;22.30;77.80;;;;;;5094732;28;20463;-83
2023/05/25 01:58:36;;;;;;;1.40;1.30;;;22.20;77.60;;;;;;5094896;28;20438;-83
2023/05/25 02:01:03;;;;;;;1.30;1.20;;;22.30;78.50;;;;;;5094691;28;20946;-89
2023/05/25 02:03:30;;;;;;;1.40;1.20;;;22.20;77.60;;;;;;5094278;28;20444;-90
2023/05/25 02:05:57;;;;;;;1.40;1.30;;;22.20;77.70;;;;;;5094647;28;20474;-83
2023/05/25 02:08:23;;;;;;;1.40;1.30;;;22.20;77.70;;;;;;5094414;28;20453;-90
2023/05/25 02:10:52;;;;;;;2.33;1.60;;;22.20;77.50;;;;;;5094518;28;20443;-83
2023/05/25 02:13:18;;;;;;;1.53;1.43;;;22.20;76.90;;;;;;5094362;28;20481;-82
2023/05/25 02:15:45;;;;;;;1.40;1.30;;;22.20;76.50;;;;;;5094339;28;20434;-82
2023/05/25 02:18:12;;;;;;;1.30;1.20;;;22.20;76.20;;;;;;5094270;28;20447;-83
2023/05/25 02:20:39;;;;;;;1.40;1.30;;;22.20;77.40;;;;;;5094288;28;20443;-83
2023/05/25 02:23:06;;;;;;;1.80;1.27;;;22.20;77.80;;;;;;5094373;28;20435;-83
2023/05/25 02:25:33;;;;;;;1.60;1.50;;;22.20;77.90;;;;;;5094165;28;20490;-83
2023/05/25 02:28:01;;;;;;;1.30;1.20;;;22.20;77.70;;;;;;5094101;28;20442;-83
2023/05/25 02:30:28;;;;;;;1.60;1.33;;;22.20;77.70;;;;;;5094069;28;20443;-83
2023/05/25 02:32:55;;;;;;;1.60;1.33;;;22.20;78.30;;;;;;5094073;28;20782;-83
2023/05/25 02:35:22;;;;;;;1.83;1.10;;;22.20;77.80;;;;;;5093328;28;20960;-83
2023/05/25 02:37:48;;;;;;;1.57;1.30;;;22.20;77.80;;;;;;5094053;28;20435;-83
2023/05/25 02:40:17;;;;;;;1.20;1.00;;;22.20;77.80;;;;;;5094019;28;20448;-83
2023/05/25 02:42:43;;;;;;;1.20;1.10;;;22.20;78.00;;;;;;5093725;28;20965;-82
2023/05/25 02:45:12;;;;;;;1.67;1.37;;;22.20;77.90;;;;;;5093900;28;20486;-83
2023/05/25 02:47:38;;;;;;;1.60;1.50;;;22.20;77.80;;;;;;5093853;28;20445;-85
2023/05/25 02:50:06;;;;;;;1.30;1.00;;;22.20;77.60;;;;;;5093857;28;20451;-83
2023/05/25 02:52:33;;;;;;;1.53;1.43;;;22.20;77.80;;;;;;5093778;28;20447;-83
2023/05/25 02:55:00;;;;;;;1.83;1.73;;;22.20;78.30;;;;;;5093493;28;20948;-83
2023/05/25 02:57:28;;;;;;;1.30;1.20;;;22.20;77.60;;;;;;5093710;28;20439;-83
2023/05/25 02:59:55;;;;;;;1.30;1.20;;;22.10;78.00;;;;;;5093803;28;20477;-83
2023/05/25 03:02:24;;;;;;;1.30;1.20;;;22.10;78.50;;;;;;5093507;28;20531;-83
2023/05/25 03:04:52;;;;;;;1.50;1.20;;;22.20;78.20;;;;;;5093554;28;20578;-83
2023/05/25 03:07:19;;;;;;;1.63;1.40;;;22.10;78.10;;;;;;5093517;28;20454;-83
2023/05/25 03:09:46;;;;;;;1.57;1.47;;;22.10;77.90;;;;;;5093611;28;20435;-90
2023/05/25 03:12:12;;;;;;;1.50;1.23;;;22.10;78.40;;;;;;5093251;28;20470;-90
2023/05/25 03:14:39;;;;;;;1.20;1.07;;;22.10;78.00;;;;;;5093388;28;20443;-83
2023/05/25 03:17:06;;;;;;;1.30;1.13;;;22.20;77.90;;;;;;5093546;28;20435;-83
2023/05/25 03:19:34;;;;;;;1.33;1.23;;;22.10;78.20;;;;;;5093291;28;20449;-87
2023/05/25 03:22:02;;;;;;;1.70;1.20;;;22.10;78.00;;;;;;5093432;28;20943;-90
2023/05/25 03:24:29;;;;;;;1.40;1.30;;;22.10;78.00;;;;;;5093336;28;20841;-89
2023/05/25 03:26:56;;;;;;;1.30;1.20;;;22.10;78.00;;;;;;5093045;28;20775;-82
2023/05/25 03:29:22;;;;;;;1.30;1.13;;;22.10;78.10;;;;;;5093070;28;20443;-82
2023/05/25 03:31:49;;;;;;;1.43;1.33;;;22.10;78.60;;;;;;5092959;28;20454;-82
2023/05/25 03:34:16;;;;;;;1.50;1.20;;;22.10;77.80;;;;;;5092612;28;20453;-82
2023/05/25 03:36:46;;;;;;;1.60;1.23;;;22.10;77.90;;;;;;5091630;28;20443;-85
2023/05/25 03:39:13;;;;;;;1.40;1.20;;;22.10;77.70;;;;;;5085706;28;20455;-90
2023/05/25 03:41:40;;;;;;;1.20;1.00;;;22.10;77.80;;;;;;5093558;28;20443;-90
2023/05/25 03:44:06;;;;;;;1.63;1.30;;;22.10;77.90;;;;;;5092367;28;20475;-85
2023/05/25 03:46:33;;;;;;;1.30;1.20;;;22.10;77.30;;;;;;5095771;28;20435;-89
2023/05/25 03:49:00;;;;;;;1.17;1.03;;;22.10;77.00;;;;;;5096679;28;20443;-83
2023/05/25 03:51:28;;;;;;;1.40;1.20;;;22.10;77.20;;;;;;5096673;28;20459;-83
2023/05/25 03:53:56;;;;;;;1.30;1.20;;;22.30;77.30;;;;;;5096970;28;20451;-89
2023/05/25 03:56:23;;;;;;;1.50;1.30;;;22.30;77.40;;;;;;5096722;28;20465;-86
2023/05/25 03:58:51;;;;;;;1.97;1.67;;;22.20;76.90;;;;;;5096520;28;20785;-83
2023/05/25 04:01:18;;;;;;;1.33;1.23;;;22.10;77.00;;;;;;5096629;28;20443;-88
2023/05/25 04:03:45;;;;;;;1.20;1.10;;;22.10;76.90;;;;;;5096522;28;20447;-87
2023/05/25 04:06:12;;;;;;;1.30;1.20;;;22.00;77.00;;;;;;5096503;28;20479;-90
2023/05/25 04:08:39;;;;;;;2.13;1.37;;;22.10;77.00;;;;;;5095793;28;20529;-89
2023/05/25 04:11:08;;;;;;;1.33;1.03;;;22.10;77.20;;;;;;5095163;28;20434;-82
2023/05/25 04:13:35;;;;;;;1.40;1.10;;;22.10;76.80;;;;;;5095205;28;20436;-83
2023/05/25 04:16:02;;;;;;;2.17;1.20;;;22.10;77.30;;;;;;5095194;28;20473;-82
2023/05/25 04:18:29;;;;;;;1.50;1.20;;;22.10;77.30;;;;;;5095097;28;20801;-89
2023/05/25 04:20:56;;;;;;;1.30;1.20;;;22.10;77.50;;;;;;5095083;28;20439;-82
2023/05/25 04:23:23;;;;;;;1.30;1.20;;;22.00;77.20;;;;;;5095075;28;20522;-84
2023/05/25 04:25:50;;;;;;;1.40;1.30;;;22.10;77.50;;;;;;5094965;28;20485;-83
2023/05/25 04:28:18;;;;;;;1.30;1.13;;;22.00;77.40;;;;;;5094923;28;20437;-83
2023/05/25 04:30:46;;;;;;;1.30;1.17;;;22.10;77.30;;;;;;5096294;28;20432;-83
2023/05/25 04:33:13;;;;;;;1.40;1.30;;;22.10;77.40;;;;;;5096710;28;20949;-83
2023/05/25 04:35:40;;;;;;;1.20;1.10;;;22.00;77.20;;;;;;5096635;28;20437;-83
2023/05/25 04:38:07;;;;;;;1.30;1.20;;;22.20;77.70;;;;;;5096462;28;20431;-83
2023/05/25 04:40:34;;;;;;;1.10;0.90;;;22.10;77.90;;;;;;5096499;28;20460;-83
2023/05/25 04:43:02;;;;;;;1.30;1.10;;;22.10;77.60;;;;;;5096366;28;20440;-83
2023/05/25 04:45:32;;;;;;;1.30;1.10;;;22.00;78.30;;;;;;5096220;28;21091;-83
2023/05/25 04:48:00;;;;;;;1.43;1.33;;;22.20;77.10;;;;;;5096373;28;20442;-90
2023/05/25 04:50:27;;;;;;;2.73;1.20;;;22.00;76.60;;;;;;5096323;28;20933;-83
2023/05/25 04:52:54;;;;;;;1.50;1.10;;;22.00;76.70;;;;;;5095386;28;20447;-83
2023/05/25 04:55:21;;;;;;;1.67;1.30;;;22.00;76.70;;;;;;5094413;28;20462;-83
2023/05/25 04:57:47;;;;;;;1.20;1.10;;;22.10;77.10;;;;;;5093557;28;20441;-83
2023/05/25 05:00:15;;;;;;;1.20;1.10;;;22.10;77.20;;;;;;5094632;28;20443;-82
2023/05/25 05:02:43;;;;;;;1.67;1.20;;;22.00;77.40;;;;;;5095656;28;20459;-89
2023/05/25 05:05:10;;;;;;;1.57;1.47;;;22.10;77.90;;;;;;5096080;28;21001;-90
2023/05/25 05:07:37;;;;;;;1.20;1.10;;;22.20;77.70;;;;;;5095302;28;20530;-84
2023/05/25 05:10:05;;;;;;;1.50;1.40;;;22.10;77.70;;;;;;5095051;28;20500;-90
2023/05/25 05:12:31;;;;;;;1.47;1.33;;;22.10;77.50;;;;;;5095295;28;20478;-83
2023/05/25 05:14:58;;;;;;;1.43;1.30;;;22.10;77.60;;;;;;5095345;28;20442;-90
2023/05/25 05:17:26;;;;;;;1.50;1.20;;;22.10;77.60;;;;;;5095557;28;20445;-84
2023/05/25 05:19:54;;;;;;;1.30;1.10;;;22.00;77.80;;;;;;5095412;28;20541;-90
2023/05/25 05:22:21;;;;;;;1.40;1.17;;;22.10;77.70;;;;;;5095297;28;20448;-83
2023/05/25 05:24:48;;;;;;;1.20;1.10;;;22.10;78.00;;;;;;5094947;28;20478;-89
2023/05/25 05:27:16;;;;;;;1.63;1.30;;;22.30;77.80;;;;;;5094640;28;20447;-86
2023/05/25 05:29:43;;;;;;;5.47;2.93;;;22.10;77.30;;;;;;5093945;28;20918;-87
2023/05/25 05:32:09;;;;;;;3.40;2.67;;;22.10;76.00;;;;;;5093778;28;20446;-82
2023/05/25 05:34:37;;;;;;;2.80;2.60;;;22.00;76.50;;;;;;5093655;28;20442;-86
2023/05/25 05:37:05;;;;;;;3.40;2.53;;;21.90;76.80;;;;;;5093673;28;20502;-87
2023/05/25 05:39:32;;;;;;;3.57;1.40;;;21.90;76.60;;;;;;5094039;28;20438;-86
2023/05/25 05:41:59;;;;;;;2.93;1.90;;;21.90;77.20;;;;;;5090892;28;20441;-83
2023/05/25 05:44:25;;;;;;;5.13;2.13;;;21.90;76.80;;;;;;5093525;28;20488;-85
2023/05/25 05:46:58;;;;;;;2.87;1.77;;;21.90;76.70;;;;;;5093801;28;20435;-85
2023/05/25 05:49:25;;;;;;;2.57;1.70;;;21.90;77.10;;;;;;5091573;28;20898;-84
2023/05/25 05:51:52;;;;;;;2.60;2.10;;;21.90;77.70;;;;;;5093639;28;20443;-85
2023/05/25 05:54:20;;;;;;;3.87;2.37;;;22.10;77.60;;;;;;5090630;28;20969;-85
2023/05/25 05:56:47;;;;;;;5.27;3.03;;;21.90;76.50;;;;;;5093173;28;21054;-85
2023/05/25 05:59:13;;;;;;;1.90;1.67;;;21.90;76.70;;;;;;5093250;28;20441;-84
2023/05/25 06:01:41;;;;;;;3.40;2.10;;;21.90;77.10;;;;;;5090719;28;20439;-84
2023/05/25 06:04:08;;;;;;;4.37;1.97;;;21.90;78.20;;;;;;5093118;28;20802;-84
2023/05/25 06:06:36;;;;;;;2.33;1.80;;;21.90;78.40;;;;;;5092916;28;20489;-85
2023/05/25 06:09:05;;;;;;;1.70;1.40;;;21.90;78.50;;;;;;5093079;28;20438;-86
2023/05/25 06:11:35;;;;;;;1.73;1.27;;;21.90;78.50;;;;;;5092815;28;20562;-85
2023/05/25 06:14:02;;;;;;;2.23;1.73;;;21.90;78.60;;;;;;5090727;28;20791;-85
2023/05/25 06:16:29;;;;;;;4.23;1.80;;;21.90;78.40;;;;;;5092921;28;20435;-85
2023/05/25 06:18:55;;;;;;;5.90;2.03;;;22.00;79.00;;;;;;5092668;28;20427;-84
2023/05/25 06:21:22;;;;;;;2.57;1.87;;;21.90;78.20;;;;;;5094056;28;20435;-83
2023/05/25 06:23:49;;;;;;;2.73;1.50;;;22.00;77.70;;;;;;5092540;28;20462;-84
2023/05/25 06:26:16;;;;;;;3.17;2.00;;;22.00;77.60;;;;;;5092783;28;20486;-82
2023/05/25 06:28:45;;;;;;;2.17;1.53;;;22.00;78.00;;;;;;5082620;28;20452;-84
2023/05/25 06:31:12;;;;;;;3.30;1.50;;;22.10;77.90;;;;;;5085799;28;20451;-85
2023/05/25 06:33:39;;;;;;;5.73;2.07;;;22.00;77.60;;;;;;5088474;28;20451;-87
2023/05/25 06:36:08;;;;;;;3.70;1.70;;;22.00;78.00;;;;;;5089136;28;20461;-87
2023/05/25 06:38:35;;;;;;;2.43;2.07;;;22.10;77.60;;;;;;5093612;28;20448;-93
2023/05/25 06:41:04;;;;;;;4.73;1.80;;;22.10;77.10;;;;;;5093847;28;20446;-89
2023/05/25 06:43:31;;;;;;;4.83;2.33;;;22.10;77.60;;;;;;5092117;28;20530;-86
2023/05/25 06:45:59;;;;;;;4.80;2.07;;;22.10;77.60;;;;;;5092186;28;21008;-87
2023/05/25 06:48:26;;;;;;;3.57;2.17;;;22.10;76.30;;;;;;5092626;28;20440;-83
2023/05/25 06:50:53;;;;;;;7.10;2.70;;;22.10;76.90;;;;;;5092206;28;20445;-85
2023/05/25 06:53:19;;;;;;;7.83;2.60;;;22.10;76.00;;;;;;5089578;28;20471;-84
2023/05/25 06:55:47;;;;;;;2.80;1.93;;;22.10;76.20;;;;;;5092469;28;20542;-84
2023/05/25 06:58:13;;;;;;;5.77;2.27;;;22.00;76.50;;;;;;5092628;28;20471;-84
2023/05/25 07:00:40;;;;;;;5.87;1.90;;;22.10;76.50;;;;;;5089777;28;20993;-84
2023/05/25 07:03:08;;;;;;;3.10;1.67;;;22.00;76.80;;;;;;5083195;28;20466;-85
2023/05/25 07:05:35;;;;;;;2.43;1.73;;;22.00;76.80;;;;;;5088881;28;20493;-87
2023/05/25 07:08:02;;;;;;;7.50;1.97;;;22.00;77.00;;;;;;5092370;28;20450;-86
2023/05/25 07:10:28;;;;;;;3.77;1.60;;;22.10;76.80;;;;;;5092680;28;20542;-84
2023/05/25 07:12:55;;;;;;;1.93;1.40;;;22.10;76.70;;;;;;5092179;28;20467;-84
2023/05/25 07:15:22;;;;;;;7.40;2.03;;;22.10;76.90;;;;;;5092357;28;20955;-85
2023/05/25 07:17:49;;;;;;;3.00;1.67;;;22.10;76.90;;;;;;5092761;28;20489;-83
2023/05/25 07:20:17;;;;;;;3.30;1.67;;;22.10;77.10;;;;;;5092773;28;20492;-85
2023/05/25 07:22:47;;;;;;;4.00;2.00;;;22.10;76.70;;;;;;5092765;28;20452;-84
2023/05/25 07:25:14;;;;;;;2.60;1.57;;;22.10;76.70;;;;;;5093162;28;20807;-84
2023/05/25 07:27:41;;;;;;;5.93;1.87;;;22.10;76.70;;;;;;5093096;28;20930;-85
2023/05/25 07:30:09;;;;;;;2.77;1.73;;;22.10;76.10;;;;;;5092971;28;20444;-84
2023/05/25 07:32:37;;;;;;;2.73;1.63;;;22.10;77.10;;;;;;5093105;28;20533;-85
2023/05/25 07:35:04;;;;;;;1.83;1.43;;;22.10;76.50;;;;;;5092541;28;20439;-84
2023/05/25 07:37:32;;;;;;;3.10;1.70;;;22.10;76.50;;;;;;5091682;28;20440;-85
2023/05/25 07:40:00;;;;;;;5.17;2.20;;;22.10;76.20;;;;;;5091662;28;20435;-84
2023/05/25 07:42:32;;;;;;;3.63;1.50;;;22.10;76.60;;;;;;5091582;28;20458;-86
2023/05/25 07:44:59;;;;;;;2.10;1.53;;;22.10;77.00;;;;;;5091996;28;20446;-83
2023/05/25 07:47:26;;;;;;;4.40;2.00;;;22.10;76.70;;;;;;5091901;28;20487;-85
2023/05/25 07:49:53;;;;;;;2.00;1.80;;;22.30;77.00;;;;;;5091593;28;20954;-84
2023/05/25 07:52:20;;;;;;;2.27;1.77;;;22.20;76.80;;;;;;5092041;28;20431;-83
2023/05/25 07:54:48;;;;;;;2.80;2.00;;;22.20;77.10;;;;;;5091764;28;20787;-85
2023/05/25 07:57:15;;;;;;;2.10;1.50;;;22.40;77.40;;;;;;5091446;28;20435;-83
2023/05/25 07:59:43;;;;;;;4.43;1.93;;;22.20;76.90;;;;;;5091548;28;20446;-84
2023/05/25 08:02:10;;;;;;;2.43;2.23;;;22.20;76.70;;;;;;5091703;28;20496;-83
2023/05/25 08:04:37;;;;;;;3.73;2.00;;;22.20;76.80;;;;;;5091548;28;20428;-85
2023/05/25 08:07:04;;;;;;;5.33;2.03;;;22.20;76.80;;;;;;5091355;28;20487;-84
2023/05/25 08:09:31;;;;;;;2.33;1.43;;;22.20;76.70;;;;;;5091564;28;20805;-84
2023/05/25 08:12:00;;;;;;;3.40;1.70;;;22.20;76.80;;;;;;5091150;28;20471;-84
2023/05/25 08:14:27;;;;;;;3.80;1.97;;;22.10;77.10;;;;;;5091320;28;20442;-85
2023/05/25 08:16:54;;;;;;;1.70;1.53;;;22.10;77.10;;;;;;5091528;28;20444;-84
2023/05/25 08:19:20;;;;;;;3.80;1.60;;;22.20;77.10;;;;;;5088586;28;20922;-84
2023/05/25 08:21:47;;;;;;;3.93;1.93;;;22.20;76.90;;;;;;5091094;28;20434;-84
2023/05/25 08:24:14;;;;;;;2.17;1.50;;;22.10;77.10;;;;;;5091284;28;20445;-83
2023/05/25 08:26:42;;;;;;;2.60;2.07;;;22.20;76.80;;;;;;5091326;28;20483;-84
2023/05/25 08:29:10;;;;;;;2.50;1.90;;;22.20;76.80;;;;;;5091482;28;20527;-84
2023/05/25 08:31:36;;;;;;;2.00;1.80;;;22.10;77.00;;;;;;5091137;28;20438;-85
2023/05/25 08:34:03;;;;;;;2.13;1.80;;;22.20;76.80;;;;;;5094728;28;20443;-84
2023/05/25 08:36:33;;;;;;;2.60;1.73;;;22.30;77.10;;;;;;5094869;28;20444;-84
2023/05/25 08:39:00;;;;;;;2.57;2.33;;;22.20;77.30;;;;;;5094745;28;20465;-83
2023/05/25 08:41:26;;;;;;;2.77;2.10;;;22.20;77.10;;;;;;5094817;28;20453;-84
2023/05/25 08:43:54;;;;;;;1.87;1.77;;;22.20;76.90;;;;;;5091834;28;20436;-83
2023/05/25 08:46:29;;;;;;;3.07;2.17;;;22.20;77.10;;;;;;5091932;28;20477;-83
2023/05/25 08:49:04;;;;;;;3.03;1.87;;;22.20;77.40;;;;;;5096137;28;20431;-92
2023/05/25 08:54:19;;;;;;;4.50;2.03;;;22.20;77.30;;;;;;5083846;28;20459;-84
2023/05/25 08:56:51;;;;;;;2.43;1.80;;;22.20;78.10;;;;;;5091112;28;20959;-88
2023/05/25 08:59:31;;;;;;;4.10;2.07;;;22.00;78.00;;;;;;5094717;28;20432;-88
2023/05/25 09:02:08;;;;;;;2.80;2.20;;;22.30;79.40;;;;;;5094767;28;20429;-85
2023/05/25 09:04:35;;;;;;;4.07;1.67;;;22.30;78.30;;;;;;5094741;28;20433;-92
2023/05/25 09:07:03;;;;;;;1.73;1.53;;;22.30;78.30;;;;;;5091847;28;20843;-91
2023/05/25 09:09:31;;;;;;;2.50;1.50;;;22.30;77.90;;;;;;5094251;28;20867;-90
2023/05/25 09:11:58;;;;;;;2.53;1.70;;;22.30;78.80;;;;;;5094557;28;20509;-91
2023/05/25 09:14:25;;;;;;;1.70;1.60;;;22.30;78.90;;;;;;5094392;28;20450;-90
2023/05/25 09:16:52;;;;;;;1.57;1.47;;;22.30;78.60;;;;;;5094308;28;20440;-91
2023/05/25 09:19:20;;;;;;;1.80;1.60;;;22.30;78.70;;;;;;5094047;28;20473;-85
2023/05/25 09:21:47;;;;;;;9.30;1.93;;;22.30;78.60;;;;;;5094506;28;20431;-92
2023/05/25 09:24:15;;;;;;;2.30;2.10;;;22.30;78.80;;;;;;5093561;28;20445;-83
2023/05/25 09:26:43;;;;;;;3.20;1.70;;;22.30;77.80;;;;;;5090422;28;20471;-83
2023/05/25 09:29:12;;;;;;;2.87;1.90;;;22.30;77.10;;;;;;5093178;28;20458;-84
2023/05/25 09:31:39;;;;;;;2.70;1.40;;;22.30;77.30;;;;;;5093092;28;20439;-83
2023/05/25 09:34:11;;;;;;;3.10;2.00;;;22.30;77.30;;;;;;5093096;28;20518;-83
2023/05/25 09:36:40;;;;;;;3.53;2.27;;;22.30;77.00;;;;;;5093107;28;20533;-83
2023/05/25 09:39:09;;;;;;;3.23;2.10;;;22.30;76.80;;;;;;5092928;28;20819;-83
2023/05/25 09:41:36;;;;;;;3.20;1.83;;;22.20;76.60;;;;;;5092421;28;20789;-83
2023/05/25 09:44:04;;;;;;;4.97;1.90;;;22.20;76.60;;;;;;5089281;28;20448;-82
2023/05/25 09:46:35;;;;;;;3.00;2.13;;;22.20;77.10;;;;;;5092212;28;20494;-82
2023/05/25 09:49:03;;;;;;;1.93;1.70;;;22.20;77.10;;;;;;5089606;28;20435;-82
2023/05/25 09:51:31;;;;;;;3.70;2.03;;;22.20;76.80;;;;;;5097269;28;20438;-88
2023/05/25 09:54:00;;;;;;;7.07;2.80;;;22.20;77.20;;;;;;5094933;28;20451;-88
2023/05/25 09:56:27;;;;;;;3.70;2.30;;;22.20;76.60;;;;;;5095596;28;20530;-88
2023/05/25 09:58:56;;;;;;;4.43;2.70;;;22.20;76.60;;;;;;5095703;28;20435;-88
2023/05/25 10:01:24;;;;;;;3.03;1.80;;;22.30;77.70;;;;;;5095435;28;20469;-88
2023/05/25 10:03:52;;;;;;;4.40;2.00;;;22.30;78.20;;;;;;5095546;28;20444;-88
2023/05/25 10:06:19;;;;;;;4.83;1.90;;;22.40;78.20;;;;;;5095390;28;20507;-88
2023/05/25 10:08:47;;;;;;;2.53;1.70;;;22.30;78.40;;;;;;5095413;28;20440;-88
2023/05/25 10:11:16;;;;;;;2.27;2.10;;;22.30;78.60;;;;;;5095182;28;20447;-87
2023/05/25 10:13:45;;;;;;;3.53;1.97;;;22.30;78.60;;;;;;5095227;28;20478;-88
2023/05/25 10:16:17;;;;;;;6.87;1.90;;;22.30;78.80;;;;;;5095116;28;20933;-87
2023/05/25 10:18:48;;;;;;;4.73;1.80;;;22.30;78.80;;;;;;5095684;28;20472;-87
2023/05/25 10:21:17;;;;;;;3.97;2.03;;;22.40;78.70;;;;;;5095380;28;20454;-87
2023/05/25 10:23:47;;;;;;;2.17;1.77;;;22.30;78.40;;;;;;5095186;28;20984;-87
2023/05/25 10:26:19;;;;;;;3.13;2.17;;;22.30;78.70;;;;;;5095221;28;20478;-87
2023/05/25 10:28:50;;;;;;;2.00;1.70;;;22.40;78.90;;;;;;5095142;28;20450;-88
2023/05/25 10:31:18;;;;;;;6.57;2.00;;;22.40;79.00;;;;;;5095180;28;20443;-88
2023/05/25 10:33:46;;;;;;;2.60;1.40;;;22.40;78.80;;;;;;5095097;28;20443;-87
2023/05/25 10:36:21;;;;;;;4.63;1.70;;;22.40;79.20;;;;;;5094820;28;20443;-91
2023/05/25 10:38:50;;;;;;;1.47;1.37;;;22.40;79.10;;;;;;5094132;28;20460;-90
2023/05/25 10:41:20;;;;;;;2.53;1.77;;;22.40;78.70;;;;;;5094674;28;20443;-90
2023/05/25 10:43:47;;;;;;;3.63;2.23;;;22.40;79.20;;;;;;5095152;28;20776;-90
2023/05/25 10:46:15;;;;;;;5.43;2.70;;;22.40;77.70;;;;;;5095204;28;20464;-90
2023/05/25 10:48:46;;;;;;;4.93;3.10;;;22.60;77.80;;;;;;5094491;28;20807;-90
2023/05/25 10:51:14;;;;;;;4.10;2.47;;;22.50;76.90;;;;;;5094898;28;20438;-89
2023/05/25 10:53:44;;;;;;;6.00;2.80;;;22.40;76.60;;;;;;5094236;28;20450;-90
2023/05/25 10:56:12;;;;;;;4.03;3.00;;;22.40;76.20;;;;;;5093497;28;20467;-90
2023/05/25 10:58:43;;;;;;;4.37;2.80;;;22.40;76.40;;;;;;5094289;28;20842;-90
2023/05/25 11:01:12;;;;;;;2.20;1.93;;;22.40;77.30;;;;;;5093614;28;20450;-83
2023/05/25 11:03:56;;;;;;;4.70;2.20;;;22.40;77.50;;;;;;5088403;28;20450;-88
2023/05/25 11:06:43;;;;;;;2.73;2.43;;;22.40;77.50;;;;;;5087852;28;20446;-83
2023/05/25 11:09:24;;;;;;;5.97;1.90;;;22.40;77.80;;;;;;5092885;28;20578;-84
2023/05/25 11:12:06;;;;;;;2.37;1.97;;;22.40;77.70;;;;;;5073284;28;20472;-82
2023/05/25 11:14:37;;;;;;;2.60;1.90;;;22.40;77.80;;;;;;5073305;28;20486;-82
2023/05/25 11:17:10;;;;;;;4.20;1.93;;;22.40;77.60;;;;;;5092143;28;20439;-82
2023/05/25 11:19:42;;;;;;;2.13;1.73;;;22.40;77.80;;;;;;5092560;28;20443;-83
2023/05/25 11:22:19;;;;;;;7.17;2.97;;;22.40;77.60;;;;;;5093123;28;20498;-84
2023/05/25 11:24:46;;;;;;;2.13;1.70;;;22.30;77.40;;;;;;5092693;28;20458;-84
2023/05/25 11:27:15;;;;;;;2.40;1.90;;;22.30;77.50;;;;;;5093080;28;20837;-87
2023/05/25 11:29:43;;;;;;;2.43;2.03;;;22.30;78.00;;;;;;5093170;28;20474;-86
2023/05/25 12:06:27;;;;;;;2.43;2.10;;;22.40;78.10;;;;;;5010814;28;20429;-84
2023/05/25 12:08:55;;;;;;;5.80;2.07;;;22.40;78.60;;;;;;5001801;28;20463;-82
2023/05/25 12:11:29;;;;;;;2.97;2.07;;;22.60;79.20;;;;;;5074617;28;20795;-84
2023/05/25 12:13:57;;;;;;;2.10;1.90;;;22.50;79.40;;;;;;5074765;28;20440;-82
2023/05/25 12:16:25;;;;;;;2.13;1.93;;;22.50;79.40;;;;;;5075066;28;20443;-90
2023/05/25 12:18:52;;;;;;;1.70;1.60;;;22.50;79.70;;;;;;5074592;28;20962;-86
2023/05/25 12:21:20;;;;;;;5.13;2.70;;;22.50;79.50;;;;;;5074564;28;20821;-88
2023/05/25 12:23:47;;;;;;;2.03;1.83;;;22.60;79.30;;;;;;5074457;28;20443;-88
2023/05/25 12:26:17;;;;;;;1.97;1.60;;;22.60;79.30;;;;;;5075850;28;20476;-90
2023/05/25 12:28:58;;;;;;;2.03;1.50;;;22.60;79.50;;;;;;5087981;28;20554;-88
2023/05/25 12:31:27;;;;;;;1.63;1.53;;;22.60;79.20;;;;;;5096850;28;20444;-89
2023/05/25 12:34:08;;;;;;;4.43;1.97;;;22.60;78.70;;;;;;5097079;28;20435;-89
2023/05/25 12:36:43;;;;;;;1.87;1.77;;;22.60;79.00;;;;;;5096729;28;20886;-90
2023/05/25 12:39:11;;;;;;;6.50;1.70;;;22.60;79.30;;;;;;5096766;28;20577;-89
2023/05/25 12:41:51;;;;;;;4.03;2.10;;;22.60;79.60;;;;;;5096642;28;20443;-90
2023/05/25 12:44:24;;;;;;;2.63;2.23;;;22.60;79.70;;;;;;5096258;28;20432;-90
2023/05/25 12:46:52;;;;;;;2.07;1.80;;;22.60;79.40;;;;;;5096402;28;20552;-88
2023/05/25 12:49:32;;;;;;;1.63;1.53;;;22.60;80.00;;;;;;5096690;28;20489;-89
2023/05/25 12:52:01;;;;;;;1.40;1.30;;;22.70;79.50;;;;;;5076452;28;20786;-89
2023/05/25 12:54:35;;;;;;;2.43;1.80;;;22.70;78.90;;;;;;5087734;28;20504;-89
2023/05/25 12:57:05;;;;;;;3.77;1.90;;;22.80;79.60;;;;;;5096211;28;20450;-89
2023/05/25 12:59:32;;;;;;;5.07;2.43;;;22.70;79.50;;;;;;5096074;28;20447;-89
2023/05/25 13:01:59;;;;;;;2.03;1.50;;;22.80;79.20;;;;;;5096159;28;20438;-90
2023/05/25 13:04:27;;;;;;;2.23;1.73;;;22.80;79.40;;;;;;5096049;28;20481;-89
2023/05/25 13:06:54;;;;;;;3.27;1.90;;;22.80;79.20;;;;;;5095943;28;20989;-89
2023/05/25 13:09:25;;;;;;;3.43;2.13;;;22.90;79.50;;;;;;5096255;28;20805;-87
2023/05/25 13:11:53;;;;;;;2.00;1.70;;;22.90;79.30;;;;;;5095973;28;20499;-89
2023/05/25 13:14:21;;;;;;;2.60;2.07;;;22.90;79.40;;;;;;5096171;28;20455;-89
2023/05/25 13:16:49;;;;;;;2.27;1.70;;;22.90;79.50;;;;;;5096243;28;20446;-89
2023/05/25 13:19:15;;;;;;;4.20;1.80;;;23.00;79.40;;;;;;5095470;28;20431;-88
2023/05/25 13:21:42;;;;;;;5.07;2.00;;;22.90;79.40;;;;;;5095797;28;20450;-90
2023/05/25 13:24:09;;;;;;;2.17;1.80;;;23.00;79.20;;;;;;5095559;28;20459;-89
2023/05/25 13:26:36;;;;;;;2.80;1.80;;;23.00;79.60;;;;;;5095794;28;20434;-88
2023/05/25 13:29:03;;;;;;;2.00;1.87;;;23.00;79.40;;;;;;5095897;28;20486;-89
2023/05/25 13:31:31;;;;;;;4.27;2.10;;;23.00;79.40;;;;;;5095511;28;21009;-89